Terminal Aerodrome Forecast
Issued by NWS

Home | Current Version | Previous Version | Text Only | Print | Product List | Glossary On
Versions: 1 2 3 4 5 6 7 8 9 10 11 12 13
000
FTUS44 KJAN 050538
TAFHKS
TAF
KHKS 050538Z 0506/0606 01006KT P6SM OVC007
     FM050900 05006KT 6SM BR VCSH BKN003 OVC007
     FM051300 05007KT 2SM RA BR VCTS BKN003 OVC010CB
     FM060000 12008KT 2SM RA BR VCTS BKN003 OVC010CB=

USA.gov is the U.S. government's official web portal to all federal, state and local government web resources and services.